sensor_id;sensor_type;location;lat;lon;timestamp;P1;durP1;ratioP1;P2;durP2;ratioP2
54899;SDS011;40801;41.924;25.562;2024-01-15T00:02:06;47.15;;;33.75;;
54899;SDS011;40801;41.924;25.562;2024-01-15T00:04:36;56.05;;;35.38;;
54899;SDS011;40801;41.924;25.562;2024-01-15T00:07:02;53.00;;;36.35;;
54899;SDS011;40801;41.924;25.562;2024-01-15T00:09:28;52.15;;;37.42;;
54899;SDS011;40801;41.924;25.562;2024-01-15T00:11:53;54.85;;;38.78;;
54899;SDS011;40801;41.924;25.562;2024-01-15T00:14:19;65.38;;;40.63;;
54899;SDS011;40801;41.924;25.562;2024-01-15T00:16:45;60.30;;;41.40;;
54899;SDS011;40801;41.924;25.562;2024-01-15T00:19:10;58.47;;;41.05;;
54899;SDS011;40801;41.924;25.562;2024-01-15T00:21:36;60.72;;;41.45;;
54899;SDS011;40801;41.924;25.562;2024-01-15T00:24:01;61.95;;;38.60;;
54899;SDS011;40801;41.924;25.562;2024-01-15T00:26:27;55.70;;;38.33;;
54899;SDS011;40801;41.924;25.562;2024-01-15T00:28:52;56.50;;;37.97;;
54899;SDS011;40801;41.924;25.562;2024-01-15T00:31:17;54.80;;;38.58;;
54899;SDS011;40801;41.924;25.562;2024-01-15T00:33:43;54.88;;;38.20;;
54899;SDS011;40801;41.924;25.562;2024-01-15T00:36:08;52.90;;;38.25;;
54899;SDS011;40801;41.924;25.562;2024-01-15T00:38:34;60.95;;;38.63;;
54899;SDS011;40801;41.924;25.562;2024-01-15T00:40:59;53.55;;;37.95;;
54899;SDS011;40801;41.924;25.562;2024-01-15T00:43:24;51.55;;;37.30;;
54899;SDS011;40801;41.924;25.562;2024-01-15T00:45:50;50.90;;;36.05;;
54899;SDS011;40801;41.924;25.562;2024-01-15T00:48:15;54.58;;;37.67;;
54899;SDS011;40801;41.924;25.562;2024-01-15T00:50:41;56.85;;;37.58;;
54899;SDS011;40801;41.924;25.562;2024-01-15T00:53:06;55.55;;;39.22;;
54899;SDS011;40801;41.924;25.562;2024-01-15T00:55:31;55.50;;;39.10;;
54899;SDS011;40801;41.924;25.562;2024-01-15T00:57:57;52.25;;;38.47;;
54899;SDS011;40801;41.924;25.562;2024-01-15T01:00:22;55.55;;;38.55;;
54899;SDS011;40801;41.924;25.562;2024-01-15T01:02:47;60.70;;;41.75;;
54899;SDS011;40801;41.924;25.562;2024-01-15T01:05:13;54.92;;;37.00;;
54899;SDS011;40801;41.924;25.562;2024-01-15T01:07:38;65.53;;;48.40;;
54899;SDS011;40801;41.924;25.562;2024-01-15T01:10:04;62.63;;;41.60;;
54899;SDS011;40801;41.924;25.562;2024-01-15T01:12:30;57.92;;;40.85;;
54899;SDS011;40801;41.924;25.562;2024-01-15T01:14:55;59.55;;;42.58;;
54899;SDS011;40801;41.924;25.562;2024-01-15T01:17:21;62.90;;;41.47;;
54899;SDS011;40801;41.924;25.562;2024-01-15T01:19:47;60.72;;;43.05;;
54899;SDS011;40801;41.924;25.562;2024-01-15T01:22:12;65.38;;;45.53;;
54899;SDS011;40801;41.924;25.562;2024-01-15T01:24:37;65.22;;;44.03;;
54899;SDS011;40801;41.924;25.562;2024-01-15T01:27:03;69.45;;;48.97;;
54899;SDS011;40801;41.924;25.562;2024-01-15T01:29:28;60.60;;;42.75;;
54899;SDS011;40801;41.924;25.562;2024-01-15T01:31:54;71.32;;;45.30;;
54899;SDS011;40801;41.924;25.562;2024-01-15T01:34:19;62.10;;;39.78;;
54899;SDS011;40801;41.924;25.562;2024-01-15T01:36:45;50.65;;;36.90;;
54899;SDS011;40801;41.924;25.562;2024-01-15T01:39:10;58.47;;;40.72;;
54899;SDS011;40801;41.924;25.562;2024-01-15T01:41:36;46.25;;;35.85;;
54899;SDS011;40801;41.924;25.562;2024-01-15T01:44:01;51.78;;;36.38;;
54899;SDS011;40801;41.924;25.562;2024-01-15T01:46:27;55.08;;;36.80;;
54899;SDS011;40801;41.924;25.562;2024-01-15T01:48:56;50.92;;;36.17;;
54899;SDS011;40801;41.924;25.562;2024-01-15T01:51:22;55.17;;;37.45;;
54899;SDS011;40801;41.924;25.562;2024-01-15T01:53:49;50.50;;;38.00;;
54899;SDS011;40801;41.924;25.562;2024-01-15T01:56:16;55.25;;;38.03;;
54899;SDS011;40801;41.924;25.562;2024-01-15T01:58:43;59.45;;;41.25;;
54899;SDS011;40801;41.924;25.562;2024-01-15T02:01:09;56.60;;;39.40;;
54899;SDS011;40801;41.924;25.562;2024-01-15T02:03:36;55.97;;;37.88;;
54899;SDS011;40801;41.924;25.562;2024-01-15T02:06:02;60.65;;;41.65;;
54899;SDS011;40801;41.924;25.562;2024-01-15T02:08:28;56.95;;;39.60;;
54899;SDS011;40801;41.924;25.562;2024-01-15T02:10:54;54.38;;;37.45;;
54899;SDS011;40801;41.924;25.562;2024-01-15T02:13:19;56.65;;;40.90;;
54899;SDS011;40801;41.924;25.562;2024-01-15T02:15:45;55.25;;;39.70;;
54899;SDS011;40801;41.924;25.562;2024-01-15T02:18:10;46.05;;;36.33;;
54899;SDS011;40801;41.924;25.562;2024-01-15T02:20:36;48.35;;;34.75;;
54899;SDS011;40801;41.924;25.562;2024-01-15T02:25:35;47.72;;;30.85;;
54899;SDS011;40801;41.924;25.562;2024-01-15T02:28:02;44.35;;;32.35;;
54899;SDS011;40801;41.924;25.562;2024-01-15T02:30:29;37.35;;;27.65;;
54899;SDS011;40801;41.924;25.562;2024-01-15T02:32:55;41.72;;;27.35;;
54899;SDS011;40801;41.924;25.562;2024-01-15T02:35:20;41.20;;;27.40;;
54899;SDS011;40801;41.924;25.562;2024-01-15T02:37:45;35.05;;;28.08;;
54899;SDS011;40801;41.924;25.562;2024-01-15T02:40:11;37.53;;;25.65;;
54899;SDS011;40801;41.924;25.562;2024-01-15T02:42:36;41.60;;;28.23;;
54899;SDS011;40801;41.924;25.562;2024-01-15T02:45:02;34.83;;;26.67;;
54899;SDS011;40801;41.924;25.562;2024-01-15T02:47:28;43.40;;;30.17;;
54899;SDS011;40801;41.924;25.562;2024-01-15T02:49:53;40.20;;;26.40;;
54899;SDS011;40801;41.924;25.562;2024-01-15T02:52:18;37.47;;;27.48;;
54899;SDS011;40801;41.924;25.562;2024-01-15T02:54:44;38.92;;;25.02;;
54899;SDS011;40801;41.924;25.562;2024-01-15T02:57:09;35.40;;;26.17;;
54899;SDS011;40801;41.924;25.562;2024-01-15T02:59:35;32.20;;;25.15;;
54899;SDS011;40801;41.924;25.562;2024-01-15T03:02:00;37.47;;;24.48;;
54899;SDS011;40801;41.924;25.562;2024-01-15T03:04:25;40.22;;;24.77;;
54899;SDS011;40801;41.924;25.562;2024-01-15T03:06:51;39.67;;;27.48;;
54899;SDS011;40801;41.924;25.562;2024-01-15T03:09:16;32.20;;;24.88;;
54899;SDS011;40801;41.924;25.562;2024-01-15T03:11:41;38.38;;;25.45;;
54899;SDS011;40801;41.924;25.562;2024-01-15T03:14:07;35.08;;;24.52;;
54899;SDS011;40801;41.924;25.562;2024-01-15T03:16:33;33.55;;;22.98;;
54899;SDS011;40801;41.924;25.562;2024-01-15T03:18:58;41.65;;;25.23;;
54899;SDS011;40801;41.924;25.562;2024-01-15T03:21:23;33.50;;;24.10;;
54899;SDS011;40801;41.924;25.562;2024-01-15T03:23:49;40.28;;;26.75;;
54899;SDS011;40801;41.924;25.562;2024-01-15T03:26:14;34.83;;;24.65;;
54899;SDS011;40801;41.924;25.562;2024-01-15T03:28:40;32.33;;;22.23;;
54899;SDS011;40801;41.924;25.562;2024-01-15T03:31:05;33.63;;;26.10;;
54899;SDS011;40801;41.924;25.562;2024-01-15T03:33:32;32.20;;;23.70;;
54899;SDS011;40801;41.924;25.562;2024-01-15T03:35:58;32.83;;;21.67;;
54899;SDS011;40801;41.924;25.562;2024-01-15T03:38:23;33.05;;;23.00;;
54899;SDS011;40801;41.924;25.562;2024-01-15T03:40:49;41.22;;;26.58;;
54899;SDS011;40801;41.924;25.562;2024-01-15T03:43:14;41.90;;;26.45;;
54899;SDS011;40801;41.924;25.562;2024-01-15T03:45:40;34.28;;;23.52;;
54899;SDS011;40801;41.924;25.562;2024-01-15T03:48:05;32.60;;;24.33;;
54899;SDS011;40801;41.924;25.562;2024-01-15T03:50:31;29.27;;;22.48;;
54899;SDS011;40801;41.924;25.562;2024-01-15T03:52:56;30.63;;;22.38;;
54899;SDS011;40801;41.924;25.562;2024-01-15T03:55:22;32.22;;;21.52;;
54899;SDS011;40801;41.924;25.562;2024-01-15T03:57:47;30.25;;;19.45;;
54899;SDS011;40801;41.924;25.562;2024-01-15T04:00:13;30.23;;;21.65;;
54899;SDS011;40801;41.924;25.562;2024-01-15T04:02:42;29.40;;;22.27;;
54899;SDS011;40801;41.924;25.562;2024-01-15T04:05:07;26.17;;;21.40;;
54899;SDS011;40801;41.924;25.562;2024-01-15T04:07:33;29.10;;;21.30;;
54899;SDS011;40801;41.924;25.562;2024-01-15T04:09:58;35.45;;;23.60;;
54899;SDS011;40801;41.924;25.562;2024-01-15T04:12:24;27.92;;;21.25;;
54899;SDS011;40801;41.924;25.562;2024-01-15T04:14:50;28.73;;;21.38;;
54899;SDS011;40801;41.924;25.562;2024-01-15T04:17:15;30.35;;;21.52;;
54899;SDS011;40801;41.924;25.562;2024-01-15T04:19:43;37.95;;;25.58;;
54899;SDS011;40801;41.924;25.562;2024-01-15T04:22:09;38.95;;;26.98;;
54899;SDS011;40801;41.924;25.562;2024-01-15T04:24:34;38.97;;;26.27;;
54899;SDS011;40801;41.924;25.562;2024-01-15T04:27:00;37.70;;;26.33;;
54899;SDS011;40801;41.924;25.562;2024-01-15T04:29:25;37.47;;;27.13;;
54899;SDS011;40801;41.924;25.562;2024-01-15T04:31:51;39.17;;;26.50;;
54899;SDS011;40801;41.924;25.562;2024-01-15T04:34:18;58.53;;;30.83;;
54899;SDS011;40801;41.924;25.562;2024-01-15T04:36:43;45.30;;;30.15;;
54899;SDS011;40801;41.924;25.562;2024-01-15T04:39:08;38.20;;;28.52;;
54899;SDS011;40801;41.924;25.562;2024-01-15T04:41:34;47.35;;;31.70;;
54899;SDS011;40801;41.924;25.562;2024-01-15T04:43:59;49.65;;;31.10;;
54899;SDS011;40801;41.924;25.562;2024-01-15T04:46:26;43.50;;;28.52;;
54899;SDS011;40801;41.924;25.562;2024-01-15T04:48:51;43.90;;;30.38;;
54899;SDS011;40801;41.924;25.562;2024-01-15T04:51:17;40.10;;;30.85;;
54899;SDS011;40801;41.924;25.562;2024-01-15T04:53:44;44.97;;;30.92;;
54899;SDS011;40801;41.924;25.562;2024-01-15T04:56:09;44.15;;;28.80;;
54899;SDS011;40801;41.924;25.562;2024-01-15T04:58:35;41.20;;;28.55;;
54899;SDS011;40801;41.924;25.562;2024-01-15T05:01:00;39.00;;;26.40;;
54899;SDS011;40801;41.924;25.562;2024-01-15T05:03:26;40.45;;;28.60;;
54899;SDS011;40801;41.924;25.562;2024-01-15T05:05:51;40.50;;;28.27;;
54899;SDS011;40801;41.924;25.562;2024-01-15T05:08:16;48.70;;;30.75;;
54899;SDS011;40801;41.924;25.562;2024-01-15T05:10:42;287.08;;;177.15;;
54899;SDS011;40801;41.924;25.562;2024-01-15T05:13:07;101.72;;;64.60;;
54899;SDS011;40801;41.924;25.562;2024-01-15T05:15:32;45.90;;;34.45;;
54899;SDS011;40801;41.924;25.562;2024-01-15T05:17:58;47.55;;;38.58;;
54899;SDS011;40801;41.924;25.562;2024-01-15T05:20:23;61.22;;;43.60;;
54899;SDS011;40801;41.924;25.562;2024-01-15T05:22:49;55.63;;;42.63;;
54899;SDS011;40801;41.924;25.562;2024-01-15T05:25:14;62.53;;;44.63;;
54899;SDS011;40801;41.924;25.562;2024-01-15T05:27:39;46.58;;;33.85;;
54899;SDS011;40801;41.924;25.562;2024-01-15T05:30:05;45.13;;;33.67;;
54899;SDS011;40801;41.924;25.562;2024-01-15T05:32:31;110.65;;;79.57;;
54899;SDS011;40801;41.924;25.562;2024-01-15T05:34:56;61.80;;;49.03;;
54899;SDS011;40801;41.924;25.562;2024-01-15T05:37:22;49.60;;;36.92;;
54899;SDS011;40801;41.924;25.562;2024-01-15T05:39:47;48.22;;;37.80;;
54899;SDS011;40801;41.924;25.562;2024-01-15T05:42:13;41.90;;;34.50;;
54899;SDS011;40801;41.924;25.562;2024-01-15T05:44:38;52.15;;;36.20;;
54899;SDS011;40801;41.924;25.562;2024-01-15T05:47:03;51.78;;;38.00;;
54899;SDS011;40801;41.924;25.562;2024-01-15T05:49:29;41.20;;;34.67;;
54899;SDS011;40801;41.924;25.562;2024-01-15T05:51:54;41.78;;;33.15;;
54899;SDS011;40801;41.924;25.562;2024-01-15T05:54:20;45.03;;;34.80;;
54899;SDS011;40801;41.924;25.562;2024-01-15T05:56:45;41.72;;;33.67;;
54899;SDS011;40801;41.924;25.562;2024-01-15T05:59:11;45.53;;;34.85;;
54899;SDS011;40801;41.924;25.562;2024-01-15T06:01:36;60.83;;;44.13;;
54899;SDS011;40801;41.924;25.562;2024-01-15T06:04:02;45.47;;;36.60;;
54899;SDS011;40801;41.924;25.562;2024-01-15T06:06:27;52.80;;;40.40;;
54899;SDS011;40801;41.924;25.562;2024-01-15T06:08:52;47.08;;;37.47;;
54899;SDS011;40801;41.924;25.562;2024-01-15T06:11:18;52.40;;;38.30;;
54899;SDS011;40801;41.924;25.562;2024-01-15T06:13:43;60.88;;;43.72;;
54899;SDS011;40801;41.924;25.562;2024-01-15T06:16:14;54.63;;;41.42;;
54899;SDS011;40801;41.924;25.562;2024-01-15T06:18:41;64.55;;;47.70;;
54899;SDS011;40801;41.924;25.562;2024-01-15T06:21:07;70.00;;;50.15;;
54899;SDS011;40801;41.924;25.562;2024-01-15T06:23:32;65.18;;;47.88;;
54899;SDS011;40801;41.924;25.562;2024-01-15T06:25:58;75.72;;;54.72;;
54899;SDS011;40801;41.924;25.562;2024-01-15T06:28:23;62.88;;;46.05;;
54899;SDS011;40801;41.924;25.562;2024-01-15T06:30:48;66.07;;;44.08;;
54899;SDS011;40801;41.924;25.562;2024-01-15T06:33:14;64.68;;;45.90;;
54899;SDS011;40801;41.924;25.562;2024-01-15T06:35:39;53.70;;;41.38;;
54899;SDS011;40801;41.924;25.562;2024-01-15T06:38:05;69.68;;;50.30;;
54899;SDS011;40801;41.924;25.562;2024-01-15T06:40:30;74.95;;;57.03;;
54899;SDS011;40801;41.924;25.562;2024-01-15T06:42:55;81.40;;;59.28;;
54899;SDS011;40801;41.924;25.562;2024-01-15T06:45:21;85.53;;;62.80;;
54899;SDS011;40801;41.924;25.562;2024-01-15T06:47:46;83.63;;;59.92;;
54899;SDS011;40801;41.924;25.562;2024-01-15T06:50:12;80.03;;;60.55;;
54899;SDS011;40801;41.924;25.562;2024-01-15T06:52:37;87.53;;;65.72;;
54899;SDS011;40801;41.924;25.562;2024-01-15T06:55:02;124.95;;;90.20;;
54899;SDS011;40801;41.924;25.562;2024-01-15T06:57:28;113.15;;;82.22;;
54899;SDS011;40801;41.924;25.562;2024-01-15T06:59:53;126.53;;;97.20;;
54899;SDS011;40801;41.924;25.562;2024-01-15T07:02:19;125.07;;;92.10;;
54899;SDS011;40801;41.924;25.562;2024-01-15T07:04:44;120.32;;;92.13;;
54899;SDS011;40801;41.924;25.562;2024-01-15T07:07:10;123.15;;;96.20;;
54899;SDS011;40801;41.924;25.562;2024-01-15T07:09:35;125.57;;;92.05;;
54899;SDS011;40801;41.924;25.562;2024-01-15T07:12:00;127.13;;;95.13;;
54899;SDS011;40801;41.924;25.562;2024-01-15T07:14:26;134.77;;;101.22;;
54899;SDS011;40801;41.924;25.562;2024-01-15T07:16:51;125.20;;;93.97;;
54899;SDS011;40801;41.924;25.562;2024-01-15T07:19:17;128.15;;;96.60;;
54899;SDS011;40801;41.924;25.562;2024-01-15T07:21:42;150.70;;;112.40;;
54899;SDS011;40801;41.924;25.562;2024-01-15T07:24:08;179.68;;;127.07;;
54899;SDS011;40801;41.924;25.562;2024-01-15T07:26:34;157.57;;;116.03;;
54899;SDS011;40801;41.924;25.562;2024-01-15T07:28:59;152.18;;;107.68;;
54899;SDS011;40801;41.924;25.562;2024-01-15T07:31:24;163.00;;;122.00;;
54899;SDS011;40801;41.924;25.562;2024-01-15T07:33:50;137.30;;;97.88;;
54899;SDS011;40801;41.924;25.562;2024-01-15T07:36:15;142.30;;;109.95;;
54899;SDS011;40801;41.924;25.562;2024-01-15T07:38:40;678.45;;;434.25;;
54899;SDS011;40801;41.924;25.562;2024-01-15T07:41:06;477.23;;;314.55;;
54899;SDS011;40801;41.924;25.562;2024-01-15T07:43:31;150.93;;;114.18;;
54899;SDS011;40801;41.924;25.562;2024-01-15T07:45:56;179.07;;;134.82;;
54899;SDS011;40801;41.924;25.562;2024-01-15T07:48:22;161.07;;;122.93;;
54899;SDS011;40801;41.924;25.562;2024-01-15T07:50:48;206.90;;;152.45;;
54899;SDS011;40801;41.924;25.562;2024-01-15T07:53:13;164.73;;;131.70;;
54899;SDS011;40801;41.924;25.562;2024-01-15T07:55:38;155.20;;;119.07;;
54899;SDS011;40801;41.924;25.562;2024-01-15T07:58:04;133.95;;;98.95;;
54899;SDS011;40801;41.924;25.562;2024-01-15T08:00:29;112.95;;;89.25;;
54899;SDS011;40801;41.924;25.562;2024-01-15T08:02:55;93.00;;;77.38;;
54899;SDS011;40801;41.924;25.562;2024-01-15T08:05:20;92.22;;;72.88;;
54899;SDS011;40801;41.924;25.562;2024-01-15T08:07:46;84.85;;;67.10;;
54899;SDS011;40801;41.924;25.562;2024-01-15T08:10:11;95.10;;;72.85;;
54899;SDS011;40801;41.924;25.562;2024-01-15T08:12:39;82.55;;;64.57;;
54899;SDS011;40801;41.924;25.562;2024-01-15T08:15:04;70.82;;;55.20;;
54899;SDS011;40801;41.924;25.562;2024-01-15T08:17:30;69.07;;;55.92;;
54899;SDS011;40801;41.924;25.562;2024-01-15T08:19:57;63.47;;;52.25;;
54899;SDS011;40801;41.924;25.562;2024-01-15T08:22:22;66.95;;;53.60;;
54899;SDS011;40801;41.924;25.562;2024-01-15T08:24:48;57.10;;;45.47;;
54899;SDS011;40801;41.924;25.562;2024-01-15T08:27:14;63.45;;;47.17;;
54899;SDS011;40801;41.924;25.562;2024-01-15T08:29:39;52.03;;;42.40;;
54899;SDS011;40801;41.924;25.562;2024-01-15T08:32:04;52.35;;;43.80;;
54899;SDS011;40801;41.924;25.562;2024-01-15T08:34:30;59.58;;;49.85;;
54899;SDS011;40801;41.924;25.562;2024-01-15T08:36:56;47.20;;;38.35;;
54899;SDS011;40801;41.924;25.562;2024-01-15T08:39:21;52.17;;;41.72;;
54899;SDS011;40801;41.924;25.562;2024-01-15T08:41:46;56.53;;;41.53;;
54899;SDS011;40801;41.924;25.562;2024-01-15T08:44:12;46.08;;;38.17;;
54899;SDS011;40801;41.924;25.562;2024-01-15T08:46:37;44.78;;;39.90;;
54899;SDS011;40801;41.924;25.562;2024-01-15T08:49:03;44.42;;;39.22;;
54899;SDS011;40801;41.924;25.562;2024-01-15T08:51:29;48.25;;;40.17;;
54899;SDS011;40801;41.924;25.562;2024-01-15T08:53:55;51.40;;;40.22;;
54899;SDS011;40801;41.924;25.562;2024-01-15T08:56:21;54.17;;;45.35;;
54899;SDS011;40801;41.924;25.562;2024-01-15T08:58:46;57.03;;;46.05;;
54899;SDS011;40801;41.924;25.562;2024-01-15T09:01:12;62.38;;;45.08;;
54899;SDS011;40801;41.924;25.562;2024-01-15T09:03:37;57.03;;;45.97;;
54899;SDS011;40801;41.924;25.562;2024-01-15T09:06:03;88.10;;;71.57;;
54899;SDS011;40801;41.924;25.562;2024-01-15T09:08:28;52.05;;;45.05;;
54899;SDS011;40801;41.924;25.562;2024-01-15T09:10:54;48.08;;;40.70;;
54899;SDS011;40801;41.924;25.562;2024-01-15T09:13:19;44.17;;;38.42;;
54899;SDS011;40801;41.924;25.562;2024-01-15T09:15:44;46.22;;;40.25;;
54899;SDS011;40801;41.924;25.562;2024-01-15T09:18:10;38.47;;;34.30;;
54899;SDS011;40801;41.924;25.562;2024-01-15T09:20:35;41.10;;;36.63;;
54899;SDS011;40801;41.924;25.562;2024-01-15T09:23:01;40.08;;;35.63;;
54899;SDS011;40801;41.924;25.562;2024-01-15T09:25:26;42.10;;;37.50;;
54899;SDS011;40801;41.924;25.562;2024-01-15T09:27:52;42.45;;;37.80;;
54899;SDS011;40801;41.924;25.562;2024-01-15T09:30:18;51.00;;;42.47;;
54899;SDS011;40801;41.924;25.562;2024-01-15T09:32:43;51.67;;;41.78;;
54899;SDS011;40801;41.924;25.562;2024-01-15T09:35:08;56.30;;;46.55;;
54899;SDS011;40801;41.924;25.562;2024-01-15T09:37:34;52.67;;;44.92;;
54899;SDS011;40801;41.924;25.562;2024-01-15T09:40:00;46.28;;;39.08;;
54899;SDS011;40801;41.924;25.562;2024-01-15T09:42:25;51.58;;;42.38;;
54899;SDS011;40801;41.924;25.562;2024-01-15T09:44:51;43.78;;;36.60;;
54899;SDS011;40801;41.924;25.562;2024-01-15T09:47:17;44.88;;;35.08;;
54899;SDS011;40801;41.924;25.562;2024-01-15T09:49:44;48.25;;;40.92;;
54899;SDS011;40801;41.924;25.562;2024-01-15T09:52:10;43.28;;;35.20;;
54899;SDS011;40801;41.924;25.562;2024-01-15T09:54:36;42.33;;;37.00;;
54899;SDS011;40801;41.924;25.562;2024-01-15T09:57:03;47.33;;;35.20;;
54899;SDS011;40801;41.924;25.562;2024-01-15T09:59:29;47.15;;;35.15;;
54899;SDS011;40801;41.924;25.562;2024-01-15T10:01:56;41.55;;;35.15;;
54899;SDS011;40801;41.924;25.562;2024-01-15T10:04:22;40.03;;;34.90;;
54899;SDS011;40801;41.924;25.562;2024-01-15T10:06:48;44.00;;;34.38;;
54899;SDS011;40801;41.924;25.562;2024-01-15T10:09:16;44.08;;;35.78;;
54899;SDS011;40801;41.924;25.562;2024-01-15T10:11:43;52.63;;;44.45;;
54899;SDS011;40801;41.924;25.562;2024-01-15T10:14:09;56.35;;;49.75;;
54899;SDS011;40801;41.924;25.562;2024-01-15T10:16:38;40.35;;;33.13;;
54899;SDS011;40801;41.924;25.562;2024-01-15T10:19:04;59.03;;;49.38;;
54899;SDS011;40801;41.924;25.562;2024-01-15T10:21:31;37.58;;;33.47;;
54899;SDS011;40801;41.924;25.562;2024-01-15T10:23:59;44.03;;;33.05;;
54899;SDS011;40801;41.924;25.562;2024-01-15T10:26:25;40.85;;;31.25;;
54899;SDS011;40801;41.924;25.562;2024-01-15T10:28:51;39.33;;;31.40;;
54899;SDS011;40801;41.924;25.562;2024-01-15T10:31:17;38.92;;;33.70;;
54899;SDS011;40801;41.924;25.562;2024-01-15T10:33:44;35.17;;;29.23;;
54899;SDS011;40801;41.924;25.562;2024-01-15T10:36:10;33.13;;;28.35;;
54899;SDS011;40801;41.924;25.562;2024-01-15T10:38:36;46.08;;;39.15;;
54899;SDS011;40801;41.924;25.562;2024-01-15T10:41:02;39.20;;;29.80;;
54899;SDS011;40801;41.924;25.562;2024-01-15T10:43:27;74.20;;;55.30;;
54899;SDS011;40801;41.924;25.562;2024-01-15T10:45:53;39.33;;;33.00;;
54899;SDS011;40801;41.924;25.562;2024-01-15T10:48:18;39.53;;;32.53;;
54899;SDS011;40801;41.924;25.562;2024-01-15T10:50:44;43.95;;;36.45;;
54899;SDS011;40801;41.924;25.562;2024-01-15T10:53:11;49.58;;;44.33;;
54899;SDS011;40801;41.924;25.562;2024-01-15T10:55:39;53.33;;;45.95;;
54899;SDS011;40801;41.924;25.562;2024-01-15T10:58:06;38.20;;;34.03;;
54899;SDS011;40801;41.924;25.562;2024-01-15T11:00:33;35.20;;;30.98;;
54899;SDS011;40801;41.924;25.562;2024-01-15T11:03:00;34.10;;;29.05;;
54899;SDS011;40801;41.924;25.562;2024-01-15T11:05:27;38.22;;;31.73;;
54899;SDS011;40801;41.924;25.562;2024-01-15T11:07:55;41.92;;;36.45;;
54899;SDS011;40801;41.924;25.562;2024-01-15T11:13:39;51.50;;;41.78;;
54899;SDS011;40801;41.924;25.562;2024-01-15T11:16:07;53.25;;;42.08;;
54899;SDS011;40801;41.924;25.562;2024-01-15T11:18:43;47.80;;;37.53;;
54899;SDS011;40801;41.924;25.562;2024-01-15T11:21:24;48.97;;;36.60;;
54899;SDS011;40801;41.924;25.562;2024-01-15T11:23:52;48.38;;;36.17;;
54899;SDS011;40801;41.924;25.562;2024-01-15T11:28:55;56.38;;;39.47;;
54899;SDS011;40801;41.924;25.562;2024-01-15T11:31:28;48.30;;;40.15;;
54899;SDS011;40801;41.924;25.562;2024-01-15T11:33:53;49.88;;;38.47;;
54899;SDS011;40801;41.924;25.562;2024-01-15T11:36:20;48.83;;;35.85;;
54899;SDS011;40801;41.924;25.562;2024-01-15T11:41:52;42.25;;;31.15;;
54899;SDS011;40801;41.924;25.562;2024-01-15T11:44:21;35.13;;;28.00;;
54899;SDS011;40801;41.924;25.562;2024-01-15T11:46:51;39.80;;;29.45;;
54899;SDS011;40801;41.924;25.562;2024-01-15T11:52:21;28.17;;;23.92;;
54899;SDS011;40801;41.924;25.562;2024-01-15T11:57:52;39.55;;;31.27;;
54899;SDS011;40801;41.924;25.562;2024-01-15T12:00:21;32.92;;;26.88;;
54899;SDS011;40801;41.924;25.562;2024-01-15T12:02:48;34.33;;;27.02;;
54899;SDS011;40801;41.924;25.562;2024-01-15T12:05:16;34.15;;;24.58;;
54899;SDS011;40801;41.924;25.562;2024-01-15T12:07:43;35.22;;;28.52;;
54899;SDS011;40801;41.924;25.562;2024-01-15T12:10:10;32.72;;;28.20;;
54899;SDS011;40801;41.924;25.562;2024-01-15T12:15:14;37.20;;;28.77;;
54899;SDS011;40801;41.924;25.562;2024-01-15T12:17:40;35.50;;;26.30;;
54899;SDS011;40801;41.924;25.562;2024-01-15T12:20:05;31.15;;;23.92;;
54899;SDS011;40801;41.924;25.562;2024-01-15T12:22:31;35.75;;;28.73;;
54899;SDS011;40801;41.924;25.562;2024-01-15T12:24:57;39.05;;;30.33;;
54899;SDS011;40801;41.924;25.562;2024-01-15T12:27:22;31.95;;;26.48;;
54899;SDS011;40801;41.924;25.562;2024-01-15T12:29:48;28.70;;;23.77;;
54899;SDS011;40801;41.924;25.562;2024-01-15T12:32:14;44.55;;;36.00;;
54899;SDS011;40801;41.924;25.562;2024-01-15T12:34:39;29.20;;;26.10;;
54899;SDS011;40801;41.924;25.562;2024-01-15T12:37:06;41.03;;;31.15;;
54899;SDS011;40801;41.924;25.562;2024-01-15T12:39:33;52.75;;;42.50;;
54899;SDS011;40801;41.924;25.562;2024-01-15T12:42:00;51.83;;;42.25;;
54899;SDS011;40801;41.924;25.562;2024-01-15T12:44:26;59.05;;;38.40;;
54899;SDS011;40801;41.924;25.562;2024-01-15T12:46:51;43.33;;;31.95;;
54899;SDS011;40801;41.924;25.562;2024-01-15T12:49:17;51.80;;;37.35;;
54899;SDS011;40801;41.924;25.562;2024-01-15T12:51:42;44.53;;;35.42;;
54899;SDS011;40801;41.924;25.562;2024-01-15T12:54:08;42.63;;;35.05;;
54899;SDS011;40801;41.924;25.562;2024-01-15T12:56:33;48.85;;;35.45;;
54899;SDS011;40801;41.924;25.562;2024-01-15T12:58:59;44.47;;;35.50;;
54899;SDS011;40801;41.924;25.562;2024-01-15T13:01:24;47.05;;;36.00;;
54899;SDS011;40801;41.924;25.562;2024-01-15T13:03:49;50.72;;;34.10;;
54899;SDS011;40801;41.924;25.562;2024-01-15T13:06:15;47.22;;;33.67;;
54899;SDS011;40801;41.924;25.562;2024-01-15T13:08:40;46.75;;;34.33;;
54899;SDS011;40801;41.924;25.562;2024-01-15T13:11:06;41.85;;;33.22;;
54899;SDS011;40801;41.924;25.562;2024-01-15T13:13:31;45.42;;;34.22;;
54899;SDS011;40801;41.924;25.562;2024-01-15T13:15:59;65.93;;;50.10;;
54899;SDS011;40801;41.924;25.562;2024-01-15T13:18:25;47.67;;;35.10;;
54899;SDS011;40801;41.924;25.562;2024-01-15T13:20:50;39.20;;;31.90;;
54899;SDS011;40801;41.924;25.562;2024-01-15T13:23:16;39.95;;;29.17;;
54899;SDS011;40801;41.924;25.562;2024-01-15T13:25:41;47.28;;;33.58;;
54899;SDS011;40801;41.924;25.562;2024-01-15T13:28:07;36.15;;;31.30;;
54899;SDS011;40801;41.924;25.562;2024-01-15T13:30:35;42.25;;;32.42;;
54899;SDS011;40801;41.924;25.562;2024-01-15T13:33:00;37.70;;;30.58;;
54899;SDS011;40801;41.924;25.562;2024-01-15T13:35:29;46.60;;;33.00;;
54899;SDS011;40801;41.924;25.562;2024-01-15T13:37:55;39.22;;;30.60;;
54899;SDS011;40801;41.924;25.562;2024-01-15T13:40:20;60.22;;;34.88;;
54899;SDS011;40801;41.924;25.562;2024-01-15T13:42:46;118.45;;;43.92;;
54899;SDS011;40801;41.924;25.562;2024-01-15T13:45:12;56.25;;;34.13;;
54899;SDS011;40801;41.924;25.562;2024-01-15T13:47:40;47.28;;;34.35;;
54899;SDS011;40801;41.924;25.562;2024-01-15T13:50:08;38.78;;;32.35;;
54899;SDS011;40801;41.924;25.562;2024-01-15T13:52:34;46.00;;;35.83;;
54899;SDS011;40801;41.924;25.562;2024-01-15T13:54:59;57.95;;;36.13;;
54899;SDS011;40801;41.924;25.562;2024-01-15T13:57:25;42.47;;;33.40;;
54899;SDS011;40801;41.924;25.562;2024-01-15T13:59:50;54.33;;;39.65;;
54899;SDS011;40801;41.924;25.562;2024-01-15T14:02:15;58.95;;;41.55;;
54899;SDS011;40801;41.924;25.562;2024-01-15T14:04:41;61.58;;;42.90;;
54899;SDS011;40801;41.924;25.562;2024-01-15T14:07:06;53.60;;;42.42;;
54899;SDS011;40801;41.924;25.562;2024-01-15T14:09:32;63.08;;;47.13;;
54899;SDS011;40801;41.924;25.562;2024-01-15T14:11:57;50.05;;;39.90;;
54899;SDS011;40801;41.924;25.562;2024-01-15T14:14:23;61.80;;;43.88;;
54899;SDS011;40801;41.924;25.562;2024-01-15T14:16:49;62.55;;;44.95;;
54899;SDS011;40801;41.924;25.562;2024-01-15T14:19:15;67.30;;;51.40;;